Time;durP1;ratioP1;P1;durP2;ratioP2;P2;SDS_P1;SDS_P2;PMS_P1;PMS_P2;Temp;Humidity;BMP_temperature;BMP_pressure;BME280_temperature;BME280_humidity;BME280_pressure;Samples;Min_cycle;Max_cycle;Signal;HPM_P1;HPM_P2
2023/09/10 00:01:10;;;;;;;17.07;15.57;;;19.40;99.90;;;;;;5051038;28;21112;-69
2023/09/10 00:03:37;;;;;;;16.30;14.90;;;19.50;99.90;;;;;;5067516;28;20192;-69
2023/09/10 00:06:05;;;;;;;16.23;14.87;;;19.40;99.90;;;;;;5052715;28;20209;-69
2023/09/10 00:08:31;;;;;;;16.53;15.13;;;19.40;99.90;;;;;;5054773;28;20416;-69
2023/09/10 00:10:57;;;;;;;17.90;16.40;;;19.40;99.90;;;;;;5049920;28;20462;-69
2023/09/10 00:13:24;;;;;;;17.30;15.90;;;19.30;99.90;;;;;;5062526;28;20493;-69
2023/09/10 00:15:55;;;;;;;17.03;15.60;;;19.30;99.90;;;;;;5055335;28;20181;-69
2023/09/10 00:18:22;;;;;;;18.63;15.73;;;19.30;99.90;;;;;;5057159;28;20416;-69
2023/09/10 00:20:50;;;;;;;17.40;15.80;;;19.40;99.90;;;;;;5072212;28;20519;-69
2023/09/10 00:23:15;;;;;;;16.77;15.20;;;19.40;99.90;;;;;;5068055;28;20432;-69
2023/09/10 00:25:41;;;;;;;15.30;13.93;;;19.40;99.90;;;;;;5065966;28;20461;-69
2023/09/10 00:28:07;;;;;;;16.00;14.70;;;19.40;99.90;;;;;;5057849;28;20177;-70
2023/09/10 00:30:33;;;;;;;15.93;14.63;;;19.40;99.90;;;;;;5049604;28;20687;-70
2023/09/10 00:32:58;;;;;;;16.40;15.10;;;19.30;99.90;;;;;;5066864;28;20173;-70
2023/09/10 00:35:24;;;;;;;17.10;15.60;;;19.20;99.90;;;;;;5067880;28;20184;-70
2023/09/10 00:37:50;;;;;;;17.37;15.67;;;19.20;99.90;;;;;;5067786;28;20203;-69
2023/09/10 00:40:15;;;;;;;16.63;15.33;;;19.20;99.90;;;;;;5069092;28;20307;-70
2023/09/10 00:42:41;;;;;;;16.77;15.33;;;19.20;99.90;;;;;;5069166;28;20216;-70
2023/09/10 00:45:09;;;;;;;16.13;13.80;;;19.10;99.90;;;;;;5068715;28;20232;-70
2023/09/10 00:47:46;;;;;;;17.17;15.53;;;19.20;99.90;;;;;;5068470;28;20898;-70
2023/09/10 00:50:16;;;;;;;17.00;15.50;;;19.20;99.90;;;;;;5068848;28;20517;-70
2023/09/10 00:52:49;;;;;;;16.80;15.20;;;19.30;99.90;;;;;;5069354;28;20412;-69
2023/09/10 00:55:15;;;;;;;17.30;15.70;;;19.40;99.90;;;;;;5068555;28;20411;-69
2023/09/10 00:57:41;;;;;;;18.53;16.70;;;19.40;99.90;;;;;;5068254;28;20812;-70
2023/09/10 01:00:08;;;;;;;17.27;15.77;;;19.30;99.90;;;;;;5066701;28;20435;-70
2023/09/10 01:02:34;;;;;;;19.07;16.50;;;19.30;99.90;;;;;;5068608;28;20690;-70
2023/09/10 01:05:00;;;;;;;17.67;16.10;;;19.40;99.90;;;;;;5068498;28;20450;-70
2023/09/10 01:07:26;;;;;;;17.60;16.00;;;19.40;99.90;;;;;;5068023;28;20414;-70
2023/09/10 01:09:52;;;;;;;16.60;15.20;;;19.50;99.90;;;;;;5068797;28;20496;-70
2023/09/10 01:12:32;;;;;;;17.43;16.00;;;19.60;99.90;;;;;;5068348;28;20415;-70
2023/09/10 01:15:11;;;;;;;16.00;14.50;;;19.70;99.90;;;;;;5068368;28;20177;-69
2023/09/10 01:17:59;;;;;;;18.10;16.23;;;19.70;99.90;;;;;;5066875;28;21095;-69
2023/09/10 01:20:36;;;;;;;16.47;15.07;;;19.70;99.90;;;;;;5068507;28;20434;-69
2023/09/10 01:23:07;;;;;;;16.57;15.07;;;19.60;99.90;;;;;;5068059;28;20417;-69
2023/09/10 01:25:33;;;;;;;18.10;16.20;;;19.60;99.90;;;;;;5068146;28;20451;-69
2023/09/10 01:28:03;;;;;;;17.83;16.10;;;19.60;99.90;;;;;;5056679;28;20474;-69
2023/09/10 01:30:29;;;;;;;18.17;16.37;;;19.60;99.90;;;;;;5050534;28;20454;-70
2023/09/10 01:33:11;;;;;;;17.23;15.57;;;19.60;99.90;;;;;;5048051;28;20496;-69
2023/09/10 01:35:59;;;;;;;18.27;16.37;;;19.50;99.90;;;;;;5047906;28;20546;-70
2023/09/10 01:38:40;;;;;;;18.20;16.60;;;19.40;99.90;;;;;;5055867;28;20861;-70
2023/09/10 01:41:13;;;;;;;17.77;16.07;;;19.30;99.90;;;;;;5047932;28;20923;-69
2023/09/10 01:43:39;;;;;;;17.50;15.70;;;19.30;99.90;;;;;;5046942;28;20411;-69
2023/09/10 01:46:06;;;;;;;18.33;16.53;;;19.30;99.90;;;;;;5046692;28;20455;-69
2023/09/10 01:48:33;;;;;;;17.87;16.27;;;19.30;99.90;;;;;;5047971;28;20417;-69
2023/09/10 01:50:58;;;;;;;17.27;15.77;;;19.40;99.90;;;;;;5047986;28;20435;-70
2023/09/10 01:53:24;;;;;;;17.53;16.03;;;19.30;99.90;;;;;;5047695;28;20408;-69
2023/09/10 01:55:50;;;;;;;19.80;15.97;;;19.30;99.90;;;;;;5047619;28;20643;-69
2023/09/10 01:58:15;;;;;;;16.83;15.40;;;19.30;99.90;;;;;;5046859;28;20185;-70
2023/09/10 02:00:42;;;;;;;17.17;15.57;;;19.30;99.90;;;;;;5046047;28;20205;-69
2023/09/10 02:03:07;;;;;;;17.90;16.30;;;19.10;99.90;;;;;;5047122;28;20722;-69
2023/09/10 02:05:33;;;;;;;18.63;16.70;;;19.20;99.90;;;;;;5047187;28;20498;-69
2023/09/10 02:07:59;;;;;;;18.03;16.40;;;19.20;99.90;;;;;;5047180;28;20186;-69
2023/09/10 02:10:25;;;;;;;18.13;16.50;;;19.20;99.90;;;;;;5046398;28;20194;-69
2023/09/10 02:12:51;;;;;;;19.10;17.40;;;19.20;99.90;;;;;;5029671;28;20184;-69
2023/09/10 02:15:17;;;;;;;17.30;15.90;;;19.20;99.90;;;;;;5046787;28;20428;-69
2023/09/10 02:17:43;;;;;;;18.80;17.10;;;19.20;99.90;;;;;;5052356;28;20181;-69
2023/09/10 02:20:09;;;;;;;19.50;17.53;;;19.20;99.90;;;;;;5056806;28;20838;-69
2023/09/10 02:22:40;;;;;;;18.43;16.83;;;19.20;99.90;;;;;;5055170;28;20209;-69
2023/09/10 02:25:07;;;;;;;16.90;15.40;;;19.20;99.90;;;;;;5056321;28;20433;-69
2023/09/10 02:27:35;;;;;;;18.10;16.33;;;19.20;99.90;;;;;;5052851;28;20451;-69
2023/09/10 02:30:02;;;;;;;17.83;16.33;;;19.20;99.90;;;;;;5046918;28;20502;-69
2023/09/10 02:32:28;;;;;;;16.43;14.93;;;19.10;99.90;;;;;;5059586;28;20417;-69
2023/09/10 02:34:54;;;;;;;17.33;15.93;;;19.10;99.90;;;;;;5066735;28;20415;-69
2023/09/10 02:37:20;;;;;;;16.93;15.57;;;19.10;99.90;;;;;;5064906;28;20650;-69
2023/09/10 02:39:46;;;;;;;20.20;18.20;;;19.00;99.90;;;;;;5051986;28;20190;-69
2023/09/10 02:42:12;;;;;;;18.70;16.93;;;18.90;99.90;;;;;;5046886;28;20405;-69
2023/09/10 02:44:37;;;;;;;18.30;16.60;;;18.70;99.90;;;;;;5046535;28;20643;-69
2023/09/10 02:47:03;;;;;;;19.83;17.97;;;18.60;99.90;;;;;;5046249;28;20288;-69
2023/09/10 02:49:29;;;;;;;18.33;16.73;;;18.60;99.90;;;;;;5046569;28;20901;-69
2023/09/10 02:51:55;;;;;;;17.23;15.83;;;18.50;99.90;;;;;;5046922;28;20188;-69
2023/09/10 02:54:20;;;;;;;17.77;16.07;;;18.40;99.90;;;;;;5046482;28;20254;-69
2023/09/10 02:56:46;;;;;;;16.60;15.20;;;18.40;99.90;;;;;;5045721;28;20940;-70
2023/09/10 02:59:32;;;;;;;16.67;15.20;;;18.30;99.90;;;;;;5046414;28;20178;-69
2023/09/10 03:01:58;;;;;;;18.67;16.90;;;18.30;99.90;;;;;;5046311;28;20511;-69
2023/09/10 03:04:24;;;;;;;16.77;15.33;;;18.30;99.90;;;;;;5046043;28;20980;-69
2023/09/10 03:06:51;;;;;;;18.47;16.77;;;18.30;99.90;;;;;;5045951;28;20198;-70
2023/09/10 03:09:17;;;;;;;17.20;15.70;;;18.30;99.90;;;;;;5044953;28;20712;-69
2023/09/10 03:11:45;;;;;;;16.30;14.73;;;18.30;99.90;;;;;;5046539;28;20458;-69
2023/09/10 03:14:11;;;;;;;17.90;16.20;;;18.20;99.90;;;;;;5046517;28;20430;-69
2023/09/10 03:16:38;;;;;;;18.10;16.50;;;18.20;99.90;;;;;;5045660;28;20412;-69
2023/09/10 03:19:04;;;;;;;18.67;16.90;;;18.20;99.90;;;;;;5045077;28;20415;-69
2023/09/10 03:21:30;;;;;;;17.57;15.97;;;18.20;99.90;;;;;;5047621;28;20412;-69
2023/09/10 03:23:57;;;;;;;17.97;16.27;;;18.10;99.90;;;;;;5050876;28;20443;-69
2023/09/10 03:26:23;;;;;;;17.97;16.27;;;18.10;99.90;;;;;;5049643;28;20228;-69
2023/09/10 03:28:48;;;;;;;19.00;16.97;;;18.10;99.90;;;;;;5065780;28;20473;-69
2023/09/10 03:31:14;;;;;;;19.03;16.90;;;18.10;99.90;;;;;;5062381;28;20689;-69
2023/09/10 03:33:41;;;;;;;17.20;15.53;;;18.20;99.90;;;;;;5050542;28;20173;-69
2023/09/10 03:36:09;;;;;;;19.07;16.73;;;18.20;99.90;;;;;;5050028;28;20178;-69
2023/09/10 03:38:35;;;;;;;17.50;15.80;;;18.20;99.90;;;;;;5063201;28;20416;-69
2023/09/10 03:41:00;;;;;;;19.20;17.20;;;18.20;99.90;;;;;;5054446;28;20810;-69
2023/09/10 03:43:26;;;;;;;18.37;16.60;;;18.30;99.90;;;;;;5065087;28;20426;-69
2023/09/10 03:45:52;;;;;;;19.33;17.40;;;18.40;99.90;;;;;;5077003;28;20573;-69
2023/09/10 03:48:17;;;;;;;18.80;17.10;;;18.50;99.90;;;;;;5068973;28;20260;-69
2023/09/10 03:50:43;;;;;;;18.67;16.90;;;18.40;99.90;;;;;;5054492;28;20201;-68
2023/09/10 03:53:09;;;;;;;18.27;16.60;;;18.30;99.90;;;;;;5049318;28;20181;-69
2023/09/10 03:55:34;;;;;;;18.17;16.37;;;18.30;99.90;;;;;;5050138;28;20182;-69
2023/09/10 03:58:00;;;;;;;17.73;15.93;;;18.20;99.90;;;;;;5049164;28;20181;-69
2023/09/10 04:00:26;;;;;;;19.20;17.50;;;18.10;99.90;;;;;;5048795;28;20862;-69
2023/09/10 04:02:51;;;;;;;18.60;16.80;;;18.10;99.90;;;;;;5049933;28;20170;-70
2023/09/10 04:05:18;;;;;;;17.63;16.13;;;18.00;99.90;;;;;;5049404;28;20205;-69
2023/09/10 04:07:44;;;;;;;17.73;15.83;;;18.00;99.90;;;;;;5049685;28;20526;-69
2023/09/10 04:10:10;;;;;;;19.20;17.50;;;18.10;99.90;;;;;;5049209;28;20428;-69
2023/09/10 04:12:36;;;;;;;18.70;17.00;;;18.10;99.90;;;;;;5050454;28;20408;-70
2023/09/10 04:15:03;;;;;;;18.10;16.60;;;18.20;99.90;;;;;;5048703;28;20208;-69
2023/09/10 04:17:29;;;;;;;18.57;16.77;;;18.20;99.90;;;;;;5049310;28;20412;-69
2023/09/10 04:19:57;;;;;;;20.40;18.50;;;18.10;99.90;;;;;;5049544;28;20447;-69
2023/09/10 04:22:23;;;;;;;18.57;16.67;;;18.10;99.90;;;;;;5049788;28;20415;-69
2023/09/10 04:24:49;;;;;;;18.53;16.93;;;18.00;99.90;;;;;;5049172;28;20779;-69
2023/09/10 04:27:14;;;;;;;17.63;16.03;;;17.90;99.90;;;;;;5050769;28;20212;-69
2023/09/10 04:29:40;;;;;;;19.37;17.43;;;17.90;99.90;;;;;;5063558;28;20197;-69
2023/09/10 04:32:06;;;;;;;18.93;17.30;;;18.00;99.90;;;;;;5058537;28;20184;-69
2023/09/10 04:34:31;;;;;;;21.60;17.70;;;18.10;99.90;;;;;;5068254;28;20193;-69
2023/09/10 04:36:57;;;;;;;18.57;16.87;;;18.10;99.90;;;;;;5068308;28;20181;-69
2023/09/10 04:39:23;;;;;;;17.70;15.80;;;18.10;99.90;;;;;;5068786;28;20197;-69
2023/09/10 04:41:49;;;;;;;18.23;16.53;;;18.20;99.90;;;;;;5053112;28;20197;-69
2023/09/10 04:44:15;;;;;;;17.90;16.27;;;18.20;99.90;;;;;;5048592;28;20692;-70
2023/09/10 04:46:41;;;;;;;18.53;16.80;;;18.20;99.90;;;;;;5048993;28;20479;-70
2023/09/10 04:49:07;;;;;;;18.40;16.80;;;18.20;99.90;;;;;;5066497;28;20430;-70
2023/09/10 04:51:33;;;;;;;19.10;17.10;;;18.20;99.90;;;;;;5060822;28;20178;-70
2023/09/10 04:53:58;;;;;;;16.73;15.17;;;18.20;99.90;;;;;;5068909;28;20175;-70
2023/09/10 04:56:24;;;;;;;18.73;17.10;;;18.20;99.90;;;;;;5066300;28;20296;-70
2023/09/10 04:58:50;;;;;;;18.97;17.17;;;18.20;99.90;;;;;;5069033;28;20181;-70
2023/09/10 05:01:16;;;;;;;16.23;14.83;;;18.20;99.90;;;;;;5068635;28;20212;-70
2023/09/10 05:03:41;;;;;;;18.27;16.57;;;18.30;99.90;;;;;;5069055;28;20169;-70
2023/09/10 05:06:07;;;;;;;17.00;15.60;;;18.20;99.90;;;;;;5067628;28;20422;-69
2023/09/10 05:08:34;;;;;;;18.37;16.87;;;18.20;99.90;;;;;;5068640;28;20234;-70
2023/09/10 05:11:00;;;;;;;18.30;16.50;;;18.20;99.90;;;;;;5067140;28;20443;-71
2023/09/10 05:13:26;;;;;;;17.37;15.80;;;18.20;99.90;;;;;;5068556;28;20912;-69
2023/09/10 05:15:54;;;;;;;19.37;17.57;;;18.20;99.90;;;;;;5068202;28;20423;-70
2023/09/10 05:18:24;;;;;;;16.77;15.17;;;18.20;99.90;;;;;;5068374;28;20423;-69
2023/09/10 05:20:52;;;;;;;17.90;16.23;;;18.30;99.90;;;;;;5068535;28;20576;-70
2023/09/10 05:23:22;;;;;;;17.43;15.77;;;18.30;99.90;;;;;;5068194;28;20904;-69
2023/09/10 05:25:48;;;;;;;18.20;16.60;;;18.30;99.90;;;;;;5067880;28;20608;-70
2023/09/10 05:28:13;;;;;;;17.07;15.47;;;18.30;99.90;;;;;;5054701;28;20420;-70
2023/09/10 05:30:39;;;;;;;18.10;16.23;;;18.40;99.90;;;;;;5047991;28;20820;-71
2023/09/10 05:33:05;;;;;;;17.50;15.80;;;18.40;99.90;;;;;;5064457;28;20177;-71
2023/09/10 05:35:31;;;;;;;18.53;16.73;;;18.50;99.90;;;;;;5067639;28;20177;-70
2023/09/10 05:37:57;;;;;;;17.73;16.10;;;18.50;99.90;;;;;;5063207;28;20178;-70
2023/09/10 05:40:22;;;;;;;17.77;16.17;;;18.50;99.90;;;;;;5047724;28;20206;-70
2023/09/10 05:42:48;;;;;;;18.40;16.63;;;18.50;99.90;;;;;;5047711;28;20269;-71
2023/09/10 05:45:14;;;;;;;17.00;15.40;;;18.50;99.90;;;;;;5046048;28;20241;-71
2023/09/10 05:47:40;;;;;;;18.10;16.40;;;18.50;99.90;;;;;;5053768;28;20177;-71
2023/09/10 05:50:06;;;;;;;18.13;16.53;;;18.50;99.90;;;;;;5065056;28;20712;-70
2023/09/10 05:52:31;;;;;;;17.90;16.20;;;18.50;99.90;;;;;;5067891;28;20238;-71
2023/09/10 05:54:57;;;;;;;18.00;16.20;;;18.60;99.90;;;;;;5067558;28;20419;-71
2023/09/10 05:57:23;;;;;;;17.80;16.30;;;18.60;99.90;;;;;;5067023;28;20256;-71
2023/09/10 05:59:49;;;;;;;18.47;16.67;;;18.70;99.90;;;;;;5067342;28;20276;-71
2023/09/10 06:02:15;;;;;;;17.73;16.03;;;18.70;99.90;;;;;;5067233;28;20538;-70
2023/09/10 06:04:41;;;;;;;20.10;16.57;;;18.80;99.90;;;;;;5067224;28;20411;-71
2023/09/10 06:07:06;;;;;;;17.07;15.40;;;18.80;99.90;;;;;;5065233;28;20197;-71
2023/09/10 06:09:32;;;;;;;17.50;15.90;;;18.80;99.90;;;;;;5067511;28;20299;-71
2023/09/10 06:11:59;;;;;;;16.93;15.53;;;19.00;99.90;;;;;;5065629;28;20180;-71
2023/09/10 06:14:25;;;;;;;19.03;17.27;;;19.10;99.90;;;;;;5039515;28;20675;-71
2023/09/10 06:16:51;;;;;;;17.03;15.43;;;19.20;99.90;;;;;;5048292;28;20505;-71
2023/09/10 06:19:17;;;;;;;17.93;16.33;;;19.40;99.90;;;;;;5057057;28;20218;-71
2023/09/10 06:21:42;;;;;;;19.67;16.47;;;19.50;99.90;;;;;;5065718;28;20180;-71
2023/09/10 06:24:08;;;;;;;18.20;16.50;;;19.70;99.90;;;;;;5066535;28;20192;-71
2023/09/10 06:26:34;;;;;;;16.00;14.40;;;19.80;99.90;;;;;;5066073;28;20205;-71
2023/09/10 06:29:00;;;;;;;17.73;15.90;;;19.90;99.90;;;;;;5047370;28;20186;-71
2023/09/10 06:31:26;;;;;;;16.50;15.10;;;20.00;99.90;;;;;;5050635;28;20443;-71
2023/09/10 06:33:54;;;;;;;16.73;15.17;;;20.10;99.90;;;;;;5067021;28;20667;-71
2023/09/10 06:36:20;;;;;;;17.73;16.23;;;20.30;99.90;;;;;;5065387;28;20435;-71
2023/09/10 06:38:47;;;;;;;17.00;15.23;;;20.40;99.90;;;;;;5067077;28;20818;-71
2023/09/10 06:41:17;;;;;;;19.37;17.33;;;20.60;99.90;;;;;;5066423;28;20435;-70
2023/09/10 06:43:43;;;;;;;17.93;16.27;;;20.70;99.90;;;;;;5067045;28;20419;-71
2023/09/10 06:46:10;;;;;;;18.33;16.63;;;20.80;99.90;;;;;;5065831;28;20459;-70
2023/09/10 06:48:36;;;;;;;17.30;15.70;;;21.00;99.90;;;;;;5060545;28;20415;-71
2023/09/10 06:51:02;;;;;;;17.57;15.90;;;21.10;99.90;;;;;;5050494;28;20432;-71
2023/09/10 06:53:28;;;;;;;18.30;16.50;;;21.30;99.90;;;;;;5050908;28;20498;-70
2023/09/10 06:55:54;;;;;;;17.27;15.73;;;21.40;99.90;;;;;;5050164;28;20447;-71
2023/09/10 06:58:21;;;;;;;17.07;15.27;;;21.60;99.90;;;;;;5047597;28;20854;-71
2023/09/10 07:00:46;;;;;;;17.27;15.80;;;21.70;99.90;;;;;;5053872;28;20203;-70
2023/09/10 07:03:13;;;;;;;17.27;15.67;;;21.80;99.90;;;;;;5066108;28;20416;-71
2023/09/10 07:05:40;;;;;;;16.77;15.07;;;21.90;99.90;;;;;;5061582;28;20209;-71
2023/09/10 07:08:07;;;;;;;19.13;17.27;;;22.10;99.90;;;;;;5071863;28;20439;-71
2023/09/10 07:10:33;;;;;;;19.63;17.53;;;22.10;99.90;;;;;;5060917;28;20515;-71
2023/09/10 07:13:01;;;;;;;18.70;16.90;;;22.20;99.90;;;;;;5052766;28;20438;-71
2023/09/10 07:15:27;;;;;;;18.67;16.93;;;22.30;99.90;;;;;;5046020;28;20487;-71
2023/09/10 07:17:52;;;;;;;19.70;17.60;;;22.30;99.90;;;;;;5045778;28;20412;-71
2023/09/10 07:20:18;;;;;;;19.40;17.77;;;22.40;99.90;;;;;;5045382;28;20209;-71
2023/09/10 07:22:44;;;;;;;19.83;18.23;;;22.50;99.90;;;;;;5045870;28;20265;-71
2023/09/10 07:25:10;;;;;;;19.63;17.70;;;22.60;99.90;;;;;;5047464;28;20192;-71
2023/09/10 07:27:35;;;;;;;18.93;17.03;;;22.70;99.90;;;;;;5063198;28;20534;-71
2023/09/10 07:30:02;;;;;;;19.27;17.57;;;22.70;99.90;;;;;;5061090;28;20241;-71
2023/09/10 07:32:27;;;;;;;18.17;16.47;;;22.80;99.90;;;;;;5045232;28;20192;-71
2023/09/10 07:34:53;;;;;;;19.07;17.47;;;22.90;99.90;;;;;;5044998;28;20420;-71
2023/09/10 07:37:19;;;;;;;20.17;18.13;;;23.00;99.90;;;;;;5045780;28;20645;-71
2023/09/10 07:39:44;;;;;;;21.17;16.27;;;23.10;99.90;;;;;;5046230;28;20284;-70
2023/09/10 07:42:10;;;;;;;20.47;18.67;;;23.20;99.90;;;;;;5046364;28;20300;-71
2023/09/10 07:44:36;;;;;;;18.03;16.63;;;23.30;99.90;;;;;;5046368;28;20657;-71
2023/09/10 07:47:01;;;;;;;18.93;17.33;;;23.30;99.90;;;;;;5045528;28;20671;-70
2023/09/10 07:49:28;;;;;;;20.43;18.63;;;23.40;99.90;;;;;;5046620;28;20688;-70
2023/09/10 07:51:54;;;;;;;18.00;16.40;;;23.50;99.90;;;;;;5051846;28;20181;-70
2023/09/10 07:54:19;;;;;;;18.20;16.50;;;23.60;99.90;;;;;;5057490;28;21278;-71
2023/09/10 07:56:45;;;;;;;18.40;16.80;;;23.70;99.90;;;;;;5065511;28;20191;-71
2023/09/10 07:59:12;;;;;;;18.30;16.80;;;23.70;99.90;;;;;;5064911;28;20192;-70
2023/09/10 08:01:38;;;;;;;16.47;15.03;;;23.80;99.90;;;;;;5060458;28;20506;-70
2023/09/10 08:04:04;;;;;;;16.30;14.90;;;23.90;99.90;;;;;;5046319;28;20496;-70
2023/09/10 08:06:30;;;;;;;17.87;16.27;;;24.00;99.90;;;;;;5057902;28;20976;-70
2023/09/10 08:08:56;;;;;;;16.10;14.70;;;24.00;99.90;;;;;;5068849;28;20411;-70
2023/09/10 08:11:21;;;;;;;16.20;14.70;;;24.10;99.90;;;;;;5058003;28;20610;-70
2023/09/10 08:13:47;;;;;;;15.83;14.53;;;24.10;99.90;;;;;;5064770;28;20256;-70
2023/09/10 08:16:14;;;;;;;15.03;13.80;;;24.10;99.90;;;;;;5059249;28;20189;-70
2023/09/10 08:18:41;;;;;;;15.10;13.90;;;24.20;99.90;;;;;;5063785;28;20640;-70
2023/09/10 08:21:07;;;;;;;15.17;13.77;;;24.30;99.90;;;;;;5058896;28;20793;-70
2023/09/10 08:23:33;;;;;;;15.57;14.00;;;24.40;99.90;;;;;;5063769;28;20440;-70
2023/09/10 08:25:58;;;;;;;14.50;13.20;;;24.40;99.90;;;;;;5046617;28;20221;-71
2023/09/10 08:28:24;;;;;;;15.27;12.80;;;24.40;99.90;;;;;;5069957;28;20187;-70
2023/09/10 08:30:51;;;;;;;15.23;13.80;;;24.40;99.90;;;;;;5058249;28;20263;-70
2023/09/10 08:33:17;;;;;;;14.47;13.07;;;24.50;99.90;;;;;;5053914;28;20190;-71
2023/09/10 08:35:48;;;;;;;14.50;12.93;;;24.50;99.90;;;;;;5033843;28;20831;-70
2023/09/10 08:38:14;;;;;;;14.70;13.33;;;24.50;99.90;;;;;;5057884;28;20190;-71
2023/09/10 08:40:52;;;;;;;12.90;11.90;;;24.50;99.90;;;;;;5057944;28;20809;-70
2023/09/10 08:43:23;;;;;;;14.20;12.70;;;24.50;99.90;;;;;;5056306;28;20428;-71
2023/09/10 08:45:50;;;;;;;12.87;11.50;;;24.60;99.90;;;;;;5055513;28;20455;-71
2023/09/10 08:48:18;;;;;;;12.90;11.80;;;24.60;99.90;;;;;;5052064;28;20429;-70
2023/09/10 08:50:46;;;;;;;13.83;12.40;;;24.70;99.90;;;;;;5049958;28;20484;-71
2023/09/10 08:53:14;;;;;;;12.57;11.53;;;24.70;99.90;;;;;;5055394;28;20421;-70
2023/09/10 08:55:42;;;;;;;12.23;11.13;;;24.70;99.90;;;;;;5059580;28;20417;-71
2023/09/10 08:58:11;;;;;;;12.87;11.70;;;24.80;99.90;;;;;;5051478;28;20428;-70
2023/09/10 09:00:38;;;;;;;13.00;11.67;;;24.90;99.90;;;;;;5054448;28;20443;-70
2023/09/10 09:03:04;;;;;;;12.70;11.70;;;24.90;99.90;;;;;;5048977;28;20507;-71
2023/09/10 09:05:30;;;;;;;15.20;11.77;;;25.00;99.90;;;;;;5055127;28;20558;-70
2023/09/10 09:08:04;;;;;;;11.30;10.30;;;25.10;99.90;;;;;;5048874;28;20597;-70
2023/09/10 09:10:30;;;;;;;12.77;11.47;;;25.10;99.90;;;;;;5011155;22;20506;-64
2023/09/10 09:13:05;;;;;;;12.23;11.13;;;25.20;99.90;;;;;;4954897;28;20444;-65
2023/09/10 09:15:32;;;;;;;14.07;10.63;;;25.20;99.90;;;;;;4961282;28;20447;-64
2023/09/10 09:17:58;;;;;;;10.90;9.80;;;25.40;99.90;;;;;;4963269;28;20436;-64
2023/09/10 09:20:25;;;;;;;11.80;10.80;;;25.50;99.90;;;;;;4964943;28;20763;-64
2023/09/10 09:23:22;;;;;;;12.03;10.57;;;25.60;99.90;;;;;;4964467;28;20918;-64
2023/09/10 09:25:49;;;;;;;10.20;9.20;;;25.80;99.90;;;;;;4960464;28;20514;-64
2023/09/10 09:28:15;;;;;;;13.30;9.10;;;25.90;99.90;;;;;;4964338;28;20512;-64
2023/09/10 09:30:41;;;;;;;10.10;9.00;;;26.00;99.90;;;;;;4965369;28;20434;-64
2023/09/10 09:33:07;;;;;;;14.63;9.00;;;26.10;99.90;;;;;;4965129;28;21171;-64
2023/09/10 09:35:33;;;;;;;9.80;9.00;;;26.20;99.90;;;;;;4965238;28;20212;-64
2023/09/10 09:38:05;;;;;;;11.33;8.93;;;26.30;99.90;;;;;;4964582;28;20898;-64
2023/09/10 09:40:33;;;;;;;11.20;8.07;;;26.40;99.90;;;;;;4965178;28;20214;-64
2023/09/10 09:43:01;;;;;;;12.10;8.70;;;26.60;99.90;;;;;;4960194;28;20434;-64
2023/09/10 09:45:26;;;;;;;9.20;8.20;;;26.70;99.90;;;;;;4965219;28;20463;-64
2023/09/10 09:47:53;;;;;;;11.93;7.23;;;26.80;99.90;;;;;;4963814;28;20427;-64
2023/09/10 09:50:20;;;;;;;14.70;8.00;;;26.90;99.90;;;;;;4965883;28;20553;-64
2023/09/10 09:52:54;;;;;;;13.83;6.97;;;27.00;99.90;;;;;;4946581;28;20439;-64
2023/09/10 09:55:20;;;;;;;16.97;8.10;;;27.10;99.90;;;;;;4963394;28;21129;-64
2023/09/10 09:57:46;;;;;;;17.60;7.10;;;27.20;99.90;;;;;;4962462;28;20416;-64
2023/09/10 10:00:13;;;;;;;14.73;8.17;;;27.30;99.90;;;;;;4962354;28;20632;-64
2023/09/10 10:02:39;;;;;;;15.03;7.50;;;27.40;99.90;;;;;;4961923;28;20431;-64
2023/09/10 10:05:05;;;;;;;17.97;7.70;;;27.40;99.90;;;;;;4962047;28;21106;-64
2023/09/10 10:07:33;;;;;;;14.93;7.27;;;27.50;99.90;;;;;;4960763;28;20220;-64
2023/09/10 10:09:59;;;;;;;12.73;6.63;;;27.60;99.90;;;;;;4964775;28;21144;-64
2023/09/10 10:12:25;;;;;;;12.47;7.97;;;27.80;99.90;;;;;;4964081;28;20435;-64
2023/09/10 10:14:53;;;;;;;19.47;8.23;;;27.80;99.90;;;;;;4964595;28;20416;-64
2023/09/10 10:17:22;;;;;;;10.00;7.27;;;27.80;99.90;;;;;;4963674;28;20531;-64
2023/09/10 10:19:49;;;;;;;11.37;6.63;;;28.00;99.90;;;;;;4964839;28;20445;-64
2023/09/10 10:22:15;;;;;;;13.43;7.10;;;28.00;99.90;;;;;;4964019;28;20432;-64
2023/09/10 10:24:41;;;;;;;13.50;8.03;;;28.10;99.90;;;;;;4964996;28;20421;-64
2023/09/10 10:27:08;;;;;;;16.60;7.23;;;28.20;99.90;;;;;;4963714;28;20479;-64
2023/09/10 10:29:34;;;;;;;13.10;7.13;;;28.20;99.90;;;;;;4964666;28;20425;-64
2023/09/10 10:32:25;;;;;;;12.77;8.50;;;28.30;99.90;;;;;;4963144;28;20420;-64
2023/09/10 10:35:05;;;;;;;16.23;7.27;;;28.40;99.90;;;;;;4964647;28;20428;-64
2023/09/10 10:37:58;;;;;;;11.53;7.43;;;28.30;99.50;;;;;;4963054;28;20444;-64
2023/09/10 10:40:38;;;;;;;18.50;7.43;;;28.40;99.90;;;;;;4969570;28;20432;-64
2023/09/10 10:43:07;;;;;;;16.50;8.47;;;28.50;99.90;;;;;;4963504;28;21106;-64
2023/09/10 10:45:33;;;;;;;14.30;7.87;;;28.60;99.90;;;;;;4963564;28;20841;-64
2023/09/10 10:48:23;;;;;;;10.30;7.80;;;28.70;99.90;;;;;;4961984;28;20444;-64
2023/09/10 10:50:53;;;;;;;10.40;7.30;;;28.70;99.90;;;;;;4955902;28;20432;-64
2023/09/10 10:53:21;;;;;;;12.90;7.60;;;28.70;99.90;;;;;;4960552;28;20430;-64
2023/09/10 10:55:53;;;;;;;13.87;7.93;;;28.80;99.90;;;;;;4962187;28;20424;-64
2023/09/10 10:58:23;;;;;;;10.00;7.30;;;28.90;99.90;;;;;;4960302;28;20439;-64
2023/09/10 11:00:53;;;;;;;12.53;6.93;;;28.90;99.90;;;;;;4961513;28;20460;-64
2023/09/10 11:03:21;;;;;;;9.93;7.70;;;29.00;99.90;;;;;;4960635;28;20495;-64
2023/09/10 11:05:52;;;;;;;12.70;7.37;;;29.00;99.90;;;;;;4961143;28;20493;-64
2023/09/10 11:08:26;;;;;;;10.33;7.27;;;29.00;99.60;;;;;;4958627;28;20423;-64
2023/09/10 11:10:51;;;;;;;13.87;7.70;;;29.00;99.70;;;;;;4959867;28;20542;-64
2023/09/10 11:13:17;;;;;;;10.90;7.70;;;29.10;99.90;;;;;;4953944;28;21369;-64
2023/09/10 11:16:05;;;;;;;10.90;8.07;;;29.10;99.90;;;;;;4959863;28;20224;-64
2023/09/10 11:18:37;;;;;;;12.23;7.83;;;29.20;99.80;;;;;;4958249;28;20713;-64
2023/09/10 11:21:13;;;;;;;11.17;7.77;;;29.30;99.90;;;;;;4954667;28;20443;-64
2023/09/10 11:24:08;;;;;;;11.10;7.30;;;29.40;99.90;;;;;;4961416;28;20427;-64
2023/09/10 11:26:35;;;;;;;13.33;7.20;;;29.50;99.30;;;;;;4954333;28;20475;-66
2023/09/10 11:29:04;;;;;;;11.00;6.67;;;29.50;98.70;;;;;;4960031;28;20432;-64
2023/09/10 11:31:38;;;;;;;9.43;6.57;;;29.50;98.60;;;;;;4943541;28;20543;-64
2023/09/10 11:34:27;;;;;;;14.93;7.70;;;29.50;99.20;;;;;;4960492;28;21071;-64
2023/09/10 11:36:54;;;;;;;13.80;6.50;;;29.60;99.90;;;;;;4959798;28;21061;-64
2023/09/10 11:39:21;;;;;;;10.10;6.60;;;29.70;98.50;;;;;;4958252;28;20550;-64
2023/09/10 11:41:48;;;;;;;11.90;8.10;;;29.70;98.90;;;;;;4961369;28;20440;-64
2023/09/10 11:44:14;;;;;;;11.70;7.23;;;29.60;99.10;;;;;;4962030;28;20462;-62
2023/09/10 11:46:41;;;;;;;12.93;7.20;;;29.70;98.00;;;;;;4965457;28;20471;-64
2023/09/10 11:49:07;;;;;;;11.57;7.20;;;29.70;97.90;;;;;;4963586;28;20184;-64
2023/09/10 11:51:40;;;;;;;11.90;7.37;;;29.70;99.50;;;;;;4966554;28;20428;-64
2023/09/10 11:54:06;;;;;;;9.57;7.23;;;29.80;98.10;;;;;;4964795;28;20820;-64
2023/09/10 11:56:33;;;;;;;12.50;6.87;;;29.80;97.60;;;;;;4966541;28;20420;-64
2023/09/10 11:59:00;;;;;;;11.80;7.03;;;29.90;98.80;;;;;;4966202;28;20424;-64
2023/09/10 12:01:26;;;;;;;10.67;7.33;;;30.00;98.80;;;;;;4965816;28;20431;-65
2023/09/10 12:03:51;;;;;;;12.27;6.83;;;30.00;99.30;;;;;;4965870;28;20435;-64
2023/09/10 12:06:17;;;;;;;10.20;7.40;;;30.00;98.60;;;;;;4964457;28;20212;-64
2023/09/10 12:08:44;;;;;;;9.07;7.33;;;30.10;98.90;;;;;;4965796;28;20188;-64
2023/09/10 12:11:11;;;;;;;9.90;7.07;;;30.00;98.40;;;;;;4964010;28;20448;-63
2023/09/10 12:13:39;;;;;;;10.63;7.07;;;30.10;98.60;;;;;;4964280;28;20446;-63
2023/09/10 12:16:06;;;;;;;13.13;7.73;;;30.20;99.90;;;;;;4964893;28;20447;-63
2023/09/10 12:18:33;;;;;;;11.23;8.07;;;30.10;98.50;;;;;;4966089;28;20492;-63
2023/09/10 12:21:00;;;;;;;9.80;7.40;;;30.10;98.30;;;;;;4948472;28;20432;-63
2023/09/10 12:23:26;;;;;;;9.63;7.37;;;30.10;98.60;;;;;;4965542;28;20423;-63
2023/09/10 12:25:57;;;;;;;10.13;6.83;;;30.10;99.30;;;;;;4966161;28;20968;-63
2023/09/10 12:28:24;;;;;;;12.70;8.00;;;30.10;99.40;;;;;;4965750;28;20423;-63
2023/09/10 12:30:50;;;;;;;9.23;7.10;;;30.20;98.50;;;;;;4966486;28;20522;-63
2023/09/10 12:33:20;;;;;;;8.70;6.80;;;30.20;98.10;;;;;;4965618;28;20483;-63